Time;durP1;ratioP1;P1;durP2;ratioP2;P2;SDS_P1;SDS_P2;PMS_P1;PMS_P2;Temp;Humidity;BMP_temperature;BMP_pressure;BME280_temperature;BME280_humidity;BME280_pressure;Samples;Min_cycle;Max_cycle;Signal;HPM_P1;HPM_P2
2023/03/24 00:01:16;;;;;;;8.20;4.20;;;13.10;99.90;;;;;;4960190;29;20202;-86
2023/03/24 00:03:50;;;;;;;8.43;4.07;;;13.20;99.90;;;;;;4956324;29;20203;-82
2023/03/24 00:06:21;;;;;;;7.07;4.27;;;13.10;99.90;;;;;;4939364;29;20230;-85
2023/03/24 00:08:48;;;;;;;5.97;3.87;;;13.00;99.90;;;;;;4950013;29;20707;-89
2023/03/24 00:11:17;;;;;;;6.47;3.97;;;12.90;99.90;;;;;;4947655;29;20223;-83
2023/03/24 00:13:46;;;;;;;8.03;4.10;;;12.90;99.90;;;;;;4966280;29;20225;-84
2023/03/24 00:16:15;;;;;;;6.97;4.37;;;12.80;99.90;;;;;;4940248;29;20621;-85
2023/03/24 00:18:42;;;;;;;6.80;4.20;;;12.70;99.90;;;;;;4959651;29;20198;-83
2023/03/24 00:21:12;;;;;;;8.63;4.40;;;12.60;99.90;;;;;;4939397;29;20212;-82
2023/03/24 00:23:41;;;;;;;8.33;4.50;;;12.60;99.90;;;;;;4956203;29;20206;-84
2023/03/24 00:26:14;;;;;;;7.27;4.33;;;12.50;99.90;;;;;;4938430;29;20226;-82
2023/03/24 00:28:47;;;;;;;6.43;4.10;;;12.50;99.90;;;;;;4954651;29;20752;-85
2023/03/24 00:31:15;;;;;;;7.43;4.30;;;12.50;99.90;;;;;;4955951;29;20216;-84
2023/03/24 00:33:49;;;;;;;6.33;4.17;;;12.40;99.90;;;;;;4954527;29;20206;-86
2023/03/24 00:36:21;;;;;;;8.83;4.20;;;12.40;99.90;;;;;;4939061;29;20217;-82
2023/03/24 00:38:49;;;;;;;9.00;4.50;;;12.30;99.90;;;;;;4955360;28;20194;-88
2023/03/24 00:41:18;;;;;;;7.63;3.93;;;12.30;99.90;;;;;;4954152;29;20210;-81
2023/03/24 00:43:47;;;;;;;6.73;4.13;;;12.20;99.90;;;;;;4955119;29;20703;-86
2023/03/24 00:55:17;;;;;;;8.43;4.20;;;12.10;99.90;;;;;;4973133;28;20245;-80
2023/03/24 00:57:49;;;;;;;6.63;4.20;;;12.00;99.90;;;;;;4957044;28;20193;-78
2023/03/24 01:00:22;;;;;;;7.03;4.03;;;11.90;99.90;;;;;;4956763;28;20741;-77
2023/03/24 01:02:52;;;;;;;6.83;4.03;;;11.90;99.90;;;;;;4957101;28;20202;-77
2023/03/24 01:05:29;;;;;;;7.40;4.03;;;11.90;99.90;;;;;;4957040;28;20260;-76
2023/03/24 01:07:58;;;;;;;7.23;3.80;;;11.80;99.90;;;;;;4974360;28;20265;-76
2023/03/24 01:10:28;;;;;;;6.13;3.90;;;11.80;99.90;;;;;;4974043;28;20218;-79
2023/03/24 01:12:57;;;;;;;6.90;3.90;;;11.80;99.90;;;;;;4956627;28;20289;-76
2023/03/24 01:15:32;;;;;;;7.77;4.37;;;11.70;99.90;;;;;;4956822;28;20212;-73
2023/03/24 01:18:01;;;;;;;7.87;4.27;;;11.70;99.90;;;;;;4956524;28;20454;-74
2023/03/24 01:20:31;;;;;;;6.87;4.40;;;11.60;99.90;;;;;;4974189;28;20182;-75
2023/03/24 01:23:00;;;;;;;6.97;3.97;;;11.60;99.90;;;;;;4956575;28;20186;-76
2023/03/24 01:25:28;;;;;;;7.63;4.13;;;11.60;99.90;;;;;;4956829;28;20240;-77
2023/03/24 01:27:54;;;;;;;6.70;3.90;;;11.60;99.90;;;;;;4956770;28;20289;-78
2023/03/24 01:30:26;;;;;;;7.83;4.07;;;11.60;99.90;;;;;;4940771;28;20202;-77
2023/03/24 01:32:54;;;;;;;7.87;3.97;;;11.60;99.90;;;;;;4956501;28;20189;-77
2023/03/24 01:35:24;;;;;;;6.37;4.17;;;11.50;99.90;;;;;;4973937;28;20681;-76
2023/03/24 01:37:55;;;;;;;8.80;4.33;;;11.50;99.90;;;;;;4956476;28;20225;-78
2023/03/24 01:40:28;;;;;;;7.17;4.23;;;11.40;99.90;;;;;;4956299;28;20639;-78
2023/03/24 01:42:56;;;;;;;6.77;4.33;;;11.40;99.90;;;;;;4956428;28;20193;-76
2023/03/24 01:45:38;;;;;;;8.57;4.23;;;11.40;99.90;;;;;;4956399;28;20711;-77
2023/03/24 01:48:13;;;;;;;8.33;4.17;;;11.40;99.90;;;;;;4973612;28;20241;-78
2023/03/24 01:50:43;;;;;;;6.87;4.60;;;11.40;99.90;;;;;;4956336;28;20196;-78
2023/03/24 01:53:12;;;;;;;8.73;4.83;;;11.30;99.90;;;;;;4956456;28;20560;-82
2023/03/24 01:55:44;;;;;;;7.80;4.40;;;11.30;99.90;;;;;;4956294;28;20201;-79
2023/03/24 01:58:11;;;;;;;6.57;4.20;;;11.30;99.90;;;;;;4956372;28;20610;-78
2023/03/24 02:00:40;;;;;;;6.43;4.40;;;11.30;99.90;;;;;;4956269;28;20201;-82
2023/03/24 02:03:19;;;;;;;7.87;4.20;;;11.30;99.90;;;;;;4973740;28;20229;-78
2023/03/24 02:05:49;;;;;;;8.97;4.40;;;11.30;99.90;;;;;;4973375;28;20233;-82
2023/03/24 02:08:47;;;;;;;8.80;4.33;;;11.30;99.90;;;;;;4956261;28;20268;-79
2023/03/24 02:11:14;;;;;;;7.80;4.27;;;11.20;99.90;;;;;;4956091;28;20228;-80
2023/03/24 02:13:41;;;;;;;8.73;4.30;;;11.20;99.90;;;;;;4956191;28;20212;-79
2023/03/24 02:16:26;;;;;;;5.77;4.20;;;11.20;99.90;;;;;;4956020;28;20190;-77
2023/03/24 02:19:11;;;;;;;6.50;4.17;;;11.20;99.90;;;;;;4956491;28;20205;-79
2023/03/24 02:21:56;;;;;;;6.47;4.00;;;11.20;99.90;;;;;;4956344;28;20192;-79
2023/03/24 02:24:32;;;;;;;7.93;4.30;;;11.10;99.90;;;;;;4962099;28;20201;-80
2023/03/24 02:26:58;;;;;;;8.60;4.27;;;11.10;99.90;;;;;;4960418;28;20197;-80
2023/03/24 02:29:48;;;;;;;7.17;4.10;;;11.00;99.90;;;;;;4981637;28;20261;-81
2023/03/24 02:32:51;;;;;;;5.40;4.00;;;11.10;99.90;;;;;;4957510;28;20190;-83
2023/03/24 02:35:43;;;;;;;7.67;4.13;;;11.00;99.90;;;;;;4956137;28;20208;-86
2023/03/24 02:38:29;;;;;;;7.00;4.23;;;11.00;99.90;;;;;;4973838;28;20201;-83
2023/03/24 02:41:10;;;;;;;7.40;4.50;;;11.00;99.90;;;;;;4957051;28;20201;-81
2023/03/24 02:44:04;;;;;;;6.53;4.13;;;10.90;99.90;;;;;;4957486;28;20190;-82
2023/03/24 02:46:40;;;;;;;8.50;4.40;;;10.90;99.90;;;;;;4957046;28;20224;-80
2023/03/24 02:49:32;;;;;;;7.37;4.53;;;10.80;99.90;;;;;;4955960;28;20655;-76
2023/03/24 02:52:31;;;;;;;8.20;4.20;;;10.80;99.90;;;;;;4956402;28;20221;-84
2023/03/24 02:55:11;;;;;;;6.73;3.83;;;10.80;99.90;;;;;;4879470;29;20239;-84
2023/03/24 02:57:59;;;;;;;6.63;4.30;;;10.80;99.90;;;;;;4895059;29;20204;-83
2023/03/24 03:00:47;;;;;;;7.80;4.73;;;10.80;99.90;;;;;;4895087;29;20200;-78
2023/03/24 03:03:33;;;;;;;7.53;4.93;;;10.80;99.90;;;;;;4879857;29;20630;-79
2023/03/24 03:06:12;;;;;;;8.50;4.60;;;10.80;99.90;;;;;;4882270;29;20757;-78
2023/03/24 03:08:43;;;;;;;8.57;4.90;;;10.80;99.90;;;;;;4898130;29;20215;-77
2023/03/24 03:11:14;;;;;;;8.37;4.73;;;10.80;99.90;;;;;;4882188;29;20723;-77
2023/03/24 03:13:44;;;;;;;8.13;4.80;;;10.70;99.90;;;;;;4882518;29;20781;-82
2023/03/24 03:16:24;;;;;;;10.07;4.83;;;10.70;99.90;;;;;;4897905;29;20208;-78
2023/03/24 03:19:00;;;;;;;8.87;4.97;;;10.70;99.90;;;;;;4882144;29;20210;-85
2023/03/24 03:21:35;;;;;;;9.23;4.80;;;10.70;99.90;;;;;;4882258;29;20291;-78
2023/03/24 03:24:28;;;;;;;8.03;4.60;;;10.70;99.90;;;;;;4897601;29;20239;-78
2023/03/24 03:27:21;;;;;;;9.00;5.37;;;10.60;99.90;;;;;;4883714;29;20714;-78
2023/03/24 03:29:59;;;;;;;8.47;5.07;;;10.60;99.90;;;;;;4906414;29;20261;-78
2023/03/24 03:32:32;;;;;;;9.00;5.00;;;10.60;99.90;;;;;;4957073;29;20210;-78
2023/03/24 03:35:08;;;;;;;10.03;5.60;;;10.60;99.90;;;;;;4939887;29;20194;-78
2023/03/24 03:37:53;;;;;;;8.93;5.00;;;10.50;99.90;;;;;;4955607;29;20644;-78
2023/03/24 03:40:26;;;;;;;10.23;5.60;;;10.50;99.90;;;;;;4939950;29;20551;-79
2023/03/24 03:42:54;;;;;;;9.13;5.37;;;10.50;99.90;;;;;;4939599;29;20191;-79
2023/03/24 03:45:21;;;;;;;9.63;5.60;;;10.50;99.90;;;;;;4939675;29;20240;-82
2023/03/24 03:47:48;;;;;;;10.37;5.60;;;10.50;99.90;;;;;;4939519;29;20194;-82
2023/03/24 03:50:15;;;;;;;9.43;5.47;;;10.40;99.90;;;;;;4956615;29;20724;-79
2023/03/24 03:52:43;;;;;;;9.73;5.43;;;10.40;99.90;;;;;;4956569;29;20201;-82
2023/03/24 03:55:11;;;;;;;9.57;5.53;;;10.30;99.90;;;;;;4955931;29;20274;-82
2023/03/24 03:57:38;;;;;;;10.20;5.77;;;10.30;99.90;;;;;;4956561;29;20241;-79
2023/03/24 04:00:13;;;;;;;9.10;5.37;;;10.30;99.90;;;;;;4956629;28;20205;-84
2023/03/24 04:02:45;;;;;;;9.57;5.80;;;10.30;99.90;;;;;;4939448;29;20221;-83
2023/03/24 04:05:26;;;;;;;11.07;6.07;;;10.30;99.90;;;;;;4938889;29;20213;-83
2023/03/24 04:08:22;;;;;;;10.93;5.90;;;10.30;99.90;;;;;;4938939;29;20202;-77
2023/03/24 04:11:26;;;;;;;11.33;6.30;;;10.30;99.90;;;;;;4938798;29;20218;-79
2023/03/24 04:14:00;;;;;;;12.23;6.37;;;10.20;99.90;;;;;;4956181;28;20226;-79
2023/03/24 04:16:55;;;;;;;12.23;6.40;;;10.20;99.90;;;;;;4956234;29;20523;-79
2023/03/24 04:20:00;;;;;;;11.43;6.40;;;10.20;99.90;;;;;;4956664;29;20216;-79
2023/03/24 04:22:38;;;;;;;10.83;6.50;;;10.30;99.90;;;;;;4956186;28;20714;-78
2023/03/24 04:25:25;;;;;;;10.50;6.17;;;10.30;99.90;;;;;;4938610;29;20208;-78
2023/03/24 04:28:15;;;;;;;10.63;6.23;;;10.30;99.90;;;;;;4938514;29;20213;-81
2023/03/24 04:30:49;;;;;;;10.77;6.47;;;10.30;99.90;;;;;;4938496;29;20214;-78
2023/03/24 04:33:51;;;;;;;15.80;7.00;;;10.30;99.90;;;;;;4955739;29;20494;-76
2023/03/24 04:36:41;;;;;;;12.80;7.10;;;10.30;99.90;;;;;;4955520;29;20240;-78
2023/03/24 04:39:18;;;;;;;13.37;7.00;;;10.20;99.90;;;;;;4938613;29;20194;-76
2023/03/24 04:41:48;;;;;;;12.50;7.43;;;10.20;99.90;;;;;;4938050;29;20220;-78
2023/03/24 04:44:16;;;;;;;12.63;6.80;;;10.20;99.90;;;;;;4955601;29;20198;-76
2023/03/24 04:46:47;;;;;;;11.50;7.20;;;10.20;99.90;;;;;;4955353;29;20218;-78
2023/03/24 04:49:18;;;;;;;14.00;7.20;;;10.30;99.90;;;;;;4938027;29;20206;-78
2023/03/24 04:51:46;;;;;;;9.87;6.97;;;10.30;99.90;;;;;;4955620;28;20664;-76
2023/03/24 04:54:13;;;;;;;12.73;7.23;;;10.40;99.90;;;;;;4926229;29;20236;-77
2023/03/24 04:56:47;;;;;;;14.43;7.20;;;10.40;99.90;;;;;;4915792;29;20211;-79
2023/03/24 04:59:16;;;;;;;14.00;7.83;;;10.50;99.90;;;;;;4916094;29;21227;-78
2023/03/24 05:01:49;;;;;;;13.40;7.77;;;10.50;99.90;;;;;;4917584;29;20202;-78
2023/03/24 05:04:18;;;;;;;11.77;7.07;;;10.50;99.90;;;;;;4917220;29;20223;-76
2023/03/24 05:06:46;;;;;;;14.50;7.90;;;10.60;99.90;;;;;;4916855;29;20685;-79
2023/03/24 05:09:13;;;;;;;14.23;7.70;;;10.60;99.90;;;;;;4915787;29;20215;-78
2023/03/24 05:11:40;;;;;;;13.87;8.10;;;10.60;99.90;;;;;;4916222;29;20223;-76
2023/03/24 05:14:07;;;;;;;15.43;7.83;;;10.70;99.90;;;;;;4915958;29;20203;-77
2023/03/24 05:16:35;;;;;;;15.23;7.90;;;10.70;99.90;;;;;;4931440;29;20210;-80
2023/03/24 05:19:05;;;;;;;15.23;8.73;;;10.80;99.90;;;;;;4915904;29;20302;-78
2023/03/24 05:21:32;;;;;;;16.87;8.37;;;10.80;99.90;;;;;;4915727;29;20242;-77
2023/03/24 05:24:02;;;;;;;13.70;8.13;;;10.90;99.90;;;;;;4915506;29;20259;-77
2023/03/24 05:26:31;;;;;;;16.70;8.77;;;10.90;99.90;;;;;;4915291;29;20247;-77
2023/03/24 05:28:59;;;;;;;13.57;8.23;;;11.00;99.90;;;;;;4915728;29;20709;-79
2023/03/24 05:31:26;;;;;;;14.30;8.23;;;11.00;99.90;;;;;;4916282;29;20208;-78
2023/03/24 05:33:53;;;;;;;16.03;8.63;;;11.10;99.90;;;;;;4916872;29;20207;-80
2023/03/24 05:36:19;;;;;;;14.40;8.67;;;11.10;99.90;;;;;;4931159;29;20199;-77
2023/03/24 05:38:46;;;;;;;14.23;8.60;;;11.10;99.90;;;;;;4916466;29;20650;-76
2023/03/24 05:41:13;;;;;;;14.20;8.17;;;11.10;99.90;;;;;;4915087;29;20214;-77
2023/03/24 05:43:40;;;;;;;16.60;8.83;;;11.20;99.90;;;;;;4915305;29;20196;-77
2023/03/24 05:46:07;;;;;;;14.57;8.37;;;11.30;99.90;;;;;;4914854;29;20689;-80
2023/03/24 05:48:34;;;;;;;13.50;8.40;;;11.30;99.90;;;;;;4915305;29;20203;-82
2023/03/24 05:51:02;;;;;;;18.33;8.80;;;11.40;99.90;;;;;;4916454;29;20208;-76
2023/03/24 05:53:30;;;;;;;15.30;8.90;;;11.40;99.90;;;;;;4905071;29;20723;-80
2023/03/24 05:55:57;;;;;;;16.00;8.33;;;11.40;99.90;;;;;;4954237;29;20217;-80
2023/03/24 05:58:25;;;;;;;14.10;8.37;;;11.50;99.90;;;;;;4954301;29;20564;-80
2023/03/24 06:00:53;;;;;;;13.87;8.10;;;11.50;99.90;;;;;;4937202;29;20202;-76
2023/03/24 06:03:20;;;;;;;15.03;8.50;;;11.60;99.90;;;;;;4954318;28;20202;-80
2023/03/24 06:05:49;;;;;;;15.53;8.50;;;11.60;99.90;;;;;;4937189;29;20222;-80
2023/03/24 06:08:17;;;;;;;14.30;7.97;;;11.60;99.90;;;;;;4952984;29;20214;-79
2023/03/24 06:10:44;;;;;;;17.07;8.47;;;11.60;99.90;;;;;;4936940;29;20218;-80
2023/03/24 06:13:11;;;;;;;14.47;7.87;;;11.70;99.90;;;;;;4937066;29;20653;-78
2023/03/24 06:15:38;;;;;;;14.80;8.17;;;11.60;99.90;;;;;;4954091;28;20277;-78
2023/03/24 06:18:06;;;;;;;14.67;8.13;;;11.70;99.90;;;;;;4953903;29;20641;-79
2023/03/24 06:20:34;;;;;;;16.27;8.00;;;11.70;99.90;;;;;;4936881;29;20205;-80
2023/03/24 06:23:02;;;;;;;13.33;8.07;;;11.80;99.90;;;;;;4953224;29;20545;-80
2023/03/24 06:25:29;;;;;;;13.30;7.90;;;11.90;99.90;;;;;;4953976;29;20214;-79
2023/03/24 06:28:02;;;;;;;14.57;8.30;;;11.80;99.90;;;;;;4953549;29;20242;-75
2023/03/24 06:30:29;;;;;;;15.73;8.03;;;11.90;99.90;;;;;;4954176;29;20606;-78
2023/03/24 06:32:57;;;;;;;14.33;8.00;;;12.00;99.90;;;;;;4952638;29;20194;-76
2023/03/24 06:35:24;;;;;;;16.50;8.50;;;12.00;99.90;;;;;;4936706;29;20241;-80
2023/03/24 06:37:50;;;;;;;15.80;8.10;;;12.10;99.90;;;;;;4954073;28;20198;-76
2023/03/24 06:40:18;;;;;;;17.20;8.27;;;12.10;99.90;;;;;;4940418;29;20202;-77
2023/03/24 06:42:45;;;;;;;14.10;8.33;;;12.10;99.90;;;;;;4956159;29;20202;-79
2023/03/24 06:45:12;;;;;;;16.23;8.07;;;12.20;99.90;;;;;;4957743;29;20257;-74
2023/03/24 06:47:39;;;;;;;15.43;8.30;;;12.30;99.90;;;;;;4940008;29;20252;-76
2023/03/24 06:50:06;;;;;;;13.57;7.97;;;12.20;99.90;;;;;;4957588;28;20249;-75
2023/03/24 06:52:34;;;;;;;16.10;7.97;;;12.30;99.90;;;;;;4940088;29;20218;-76
2023/03/24 06:55:01;;;;;;;15.80;7.93;;;12.30;99.90;;;;;;4940023;29;20455;-75
2023/03/24 06:57:28;;;;;;;13.73;7.43;;;12.30;99.90;;;;;;4939971;29;20194;-74
2023/03/24 06:59:55;;;;;;;13.83;7.50;;;12.40;99.90;;;;;;4957235;29;20191;-74
2023/03/24 07:02:22;;;;;;;14.23;8.10;;;12.40;99.90;;;;;;4940021;29;20198;-74
2023/03/24 07:04:52;;;;;;;14.33;7.60;;;12.50;99.90;;;;;;4939885;29;20202;-78
2023/03/24 07:07:21;;;;;;;15.13;8.20;;;12.50;99.90;;;;;;4939635;29;20324;-75
2023/03/24 07:10:08;;;;;;;16.30;7.73;;;12.50;99.90;;;;;;4957053;29;20187;-76
2023/03/24 07:12:35;;;;;;;14.50;7.80;;;12.50;99.90;;;;;;4940177;29;20206;-77
2023/03/24 07:15:03;;;;;;;13.60;7.53;;;12.60;99.90;;;;;;4939845;29;20283;-76
2023/03/24 07:17:30;;;;;;;12.80;7.57;;;12.60;99.90;;;;;;4955762;29;20300;-80
2023/03/24 07:19:57;;;;;;;14.87;7.80;;;12.60;99.90;;;;;;4957114;28;20560;-74
2023/03/24 07:22:24;;;;;;;14.37;7.07;;;12.60;99.90;;;;;;4939983;29;20220;-78
2023/03/24 07:24:51;;;;;;;13.40;7.10;;;12.60;99.90;;;;;;4939488;29;20289;-76
2023/03/24 07:27:20;;;;;;;14.20;7.47;;;12.60;99.90;;;;;;4939724;29;20222;-81
2023/03/24 07:29:47;;;;;;;12.37;7.77;;;12.60;99.90;;;;;;4939721;29;20206;-77
2023/03/24 07:32:13;;;;;;;13.03;7.53;;;12.60;99.90;;;;;;4939759;29;20201;-77
2023/03/24 07:34:42;;;;;;;10.77;6.90;;;12.60;99.90;;;;;;4939838;29;20205;-77
2023/03/24 07:37:09;;;;;;;11.57;7.10;;;12.60;99.90;;;;;;4923731;29;20203;-79
2023/03/24 07:39:37;;;;;;;13.33;7.37;;;12.60;99.90;;;;;;4939454;29;20229;-77
2023/03/24 07:42:04;;;;;;;13.90;7.53;;;12.50;99.90;;;;;;4944152;28;20292;-75
2023/03/24 07:44:31;;;;;;;14.93;7.40;;;12.50;99.90;;;;;;4958519;28;20225;-78
2023/03/24 07:46:58;;;;;;;15.63;8.00;;;12.50;99.90;;;;;;4958060;28;20248;-76
2023/03/24 07:49:26;;;;;;;12.63;7.30;;;12.60;99.90;;;;;;4977430;28;20209;-77
2023/03/24 07:51:53;;;;;;;10.30;6.97;;;12.60;99.90;;;;;;4958988;28;20303;-79
2023/03/24 07:54:20;;;;;;;14.33;7.80;;;12.50;99.90;;;;;;4957974;28;20236;-76
2023/03/24 07:56:47;;;;;;;12.13;7.57;;;12.60;99.90;;;;;;4951671;28;20253;-78
2023/03/24 07:59:14;;;;;;;13.37;7.33;;;12.60;99.90;;;;;;4958660;28;20205;-78
2023/03/24 08:01:41;;;;;;;14.50;7.23;;;12.70;99.90;;;;;;4975827;28;20241;-77
2023/03/24 08:04:12;;;;;;;13.20;7.83;;;12.70;99.90;;;;;;4975384;28;20193;-80
2023/03/24 08:06:42;;;;;;;14.73;7.50;;;12.70;99.90;;;;;;4958124;28;20225;-78
2023/03/24 08:09:13;;;;;;;11.63;7.27;;;12.70;99.90;;;;;;4958206;28;20228;-77
2023/03/24 08:11:41;;;;;;;14.80;7.67;;;12.70;99.90;;;;;;4957867;28;20219;-77
2023/03/24 08:14:08;;;;;;;15.40;8.07;;;12.70;99.90;;;;;;4975318;28;20284;-76
2023/03/24 08:16:37;;;;;;;14.23;8.33;;;12.70;99.90;;;;;;4960012;28;20277;-78
2023/03/24 08:19:05;;;;;;;14.07;7.90;;;12.60;99.90;;;;;;4957932;28;20205;-75
2023/03/24 08:21:32;;;;;;;13.93;7.77;;;12.70;99.90;;;;;;4975044;28;20297;-77
2023/03/24 08:23:59;;;;;;;11.80;7.27;;;12.80;99.90;;;;;;4957373;28;20311;-76
2023/03/24 08:26:26;;;;;;;13.10;7.63;;;12.90;99.90;;;;;;4975047;28;20574;-81
2023/03/24 08:28:53;;;;;;;12.10;7.30;;;13.10;99.90;;;;;;4957648;28;20200;-80
2023/03/24 08:31:20;;;;;;;11.70;7.27;;;13.10;99.90;;;;;;4937866;29;20217;-78
2023/03/24 08:33:47;;;;;;;13.30;7.30;;;13.10;99.90;;;;;;4938353;29;20195;-80
2023/03/24 08:36:15;;;;;;;15.43;7.50;;;13.10;99.90;;;;;;4938386;29;20205;-78
2023/03/24 08:38:42;;;;;;;13.97;7.63;;;13.00;99.90;;;;;;4938509;29;20202;-78
2023/03/24 08:41:10;;;;;;;12.47;7.23;;;13.10;99.90;;;;;;4938375;29;20201;-78
2023/03/24 08:43:38;;;;;;;12.43;7.17;;;13.00;99.90;;;;;;4938131;29;20212;-80
2023/03/24 08:46:07;;;;;;;13.73;6.93;;;13.10;99.90;;;;;;4938530;29;20202;-79
2023/03/24 08:48:39;;;;;;;11.37;7.30;;;13.20;99.90;;;;;;4938092;29;20221;-77
2023/03/24 08:51:11;;;;;;;14.10;7.53;;;13.20;99.90;;;;;;4956381;29;20264;-77
2023/03/24 08:53:38;;;;;;;11.33;7.57;;;13.20;99.90;;;;;;4955500;29;20313;-77
2023/03/24 08:56:05;;;;;;;12.47;7.40;;;13.20;99.90;;;;;;4955170;29;20198;-76
2023/03/24 08:58:32;;;;;;;13.23;7.40;;;13.10;99.90;;;;;;4938120;29;20212;-76
2023/03/24 09:01:00;;;;;;;11.63;7.03;;;13.10;99.90;;;;;;4937336;29;20209;-76
2023/03/24 09:03:27;;;;;;;11.03;7.23;;;13.10;99.90;;;;;;4937593;28;20194;-76
2023/03/24 09:05:56;;;;;;;12.73;7.60;;;13.10;99.90;;;;;;4955368;29;20198;-77
2023/03/24 09:08:23;;;;;;;14.13;7.83;;;13.20;99.90;;;;;;4962029;28;20213;-78
2023/03/24 09:10:50;;;;;;;10.93;7.47;;;13.30;99.90;;;;;;4940275;29;20241;-75
2023/03/24 09:13:18;;;;;;;12.70;8.07;;;13.40;99.90;;;;;;4956561;28;20202;-76
2023/03/24 09:15:47;;;;;;;13.53;7.77;;;13.40;99.90;;;;;;4952274;28;20281;-77
2023/03/24 09:18:15;;;;;;;13.70;7.90;;;13.60;99.90;;;;;;4937493;29;20209;-77
2023/03/24 09:20:42;;;;;;;12.10;7.93;;;13.80;99.90;;;;;;4937316;29;20217;-74
2023/03/24 09:23:09;;;;;;;11.93;8.23;;;14.20;99.90;;;;;;4955362;29;20899;-76
2023/03/24 09:25:36;;;;;;;13.33;7.70;;;14.60;99.90;;;;;;4952413;28;20189;-76
2023/03/24 09:28:04;;;;;;;13.00;7.87;;;15.20;99.90;;;;;;4956508;28;20226;-75
2023/03/24 09:30:31;;;;;;;14.43;7.80;;;15.90;99.90;;;;;;4974027;28;20193;-75
2023/03/24 09:33:01;;;;;;;13.23;7.50;;;16.40;99.90;;;;;;4956482;28;20216;-77
2023/03/24 09:35:28;;;;;;;12.30;7.77;;;16.50;99.90;;;;;;4974019;28;20260;-79
2023/03/24 09:37:55;;;;;;;12.70;7.27;;;16.70;99.90;;;;;;4973871;28;20565;-78
2023/03/24 09:40:28;;;;;;;12.57;7.13;;;17.00;99.90;;;;;;4956720;28;20223;-79
2023/03/24 09:43:13;;;;;;;11.13;7.00;;;17.20;99.90;;;;;;4956533;28;20679;-78
2023/03/24 09:45:52;;;;;;;11.67;7.00;;;17.20;99.90;;;;;;4954239;29;20194;-79
2023/03/24 09:48:34;;;;;;;11.33;6.67;;;17.30;99.90;;;;;;4937478;29;20214;-77
2023/03/24 09:51:46;;;;;;;11.37;6.47;;;17.30;99.90;;;;;;4937128;29;20194;-80
2023/03/24 09:54:30;;;;;;;10.47;6.17;;;17.40;99.90;;;;;;4859260;29;20614;-79
2023/03/24 09:56:58;;;;;;;12.10;6.30;;;17.50;99.90;;;;;;4885012;29;20578;-79
2023/03/24 09:59:30;;;;;;;10.40;6.40;;;17.20;99.90;;;;;;4892060;29;20212;-78
2023/03/24 10:01:57;;;;;;;9.03;6.20;;;17.20;99.90;;;;;;4879094;29;20573;-75
2023/03/24 10:04:26;;;;;;;10.53;6.13;;;17.20;99.90;;;;;;4878651;29;20733;-75
2023/03/24 10:07:02;;;;;;;9.87;6.03;;;16.90;99.90;;;;;;4878943;29;20242;-75
2023/03/24 10:09:35;;;;;;;9.30;6.07;;;17.00;99.90;;;;;;4879011;29;20208;-77
2023/03/24 10:12:22;;;;;;;8.07;5.87;;;17.00;99.90;;;;;;4880160;29;20220;-72
2023/03/24 10:14:52;;;;;;;8.23;5.40;;;16.90;99.90;;;;;;4885396;29;20216;-72
2023/03/24 10:17:37;;;;;;;8.93;5.40;;;16.90;99.90;;;;;;4885139;29;20362;-70
2023/03/24 10:20:22;;;;;;;9.23;5.77;;;16.90;99.90;;;;;;4885194;29;20235;-72
2023/03/24 10:22:51;;;;;;;9.53;6.17;;;16.90;99.90;;;;;;4885308;29;20570;-74
2023/03/24 10:25:47;;;;;;;10.37;6.20;;;16.80;99.90;;;;;;4885418;29;20671;-75
2023/03/24 10:28:17;;;;;;;9.83;5.77;;;16.60;99.90;;;;;;4878520;29;20236;-75
2023/03/24 10:30:46;;;;;;;10.30;6.37;;;16.40;99.90;;;;;;4913441;29;20210;-75
2023/03/24 10:33:15;;;;;;;9.63;5.97;;;16.20;99.90;;;;;;4943514;29;20201;-74
2023/03/24 10:35:55;;;;;;;8.70;5.90;;;16.30;99.90;;;;;;4942841;29;20240;-74
2023/03/24 10:38:23;;;;;;;9.67;5.60;;;16.30;99.90;;;;;;4942379;29;20245;-78
2023/03/24 10:40:51;;;;;;;10.73;6.10;;;16.30;99.90;;;;;;4968053;28;20204;-75
2023/03/24 10:43:18;;;;;;;11.00;6.47;;;16.20;99.90;;;;;;4942762;29;20648;-73
2023/03/24 10:45:51;;;;;;;9.87;6.60;;;16.10;99.90;;;;;;4943029;29;20202;-85
2023/03/24 10:49:05;;;;;;;11.40;6.50;;;16.10;99.90;;;;;;4959963;29;20648;-79
2023/03/24 10:51:33;;;;;;;12.07;6.70;;;16.10;99.90;;;;;;4882053;29;20212;-76
2023/03/24 10:54:10;;;;;;;11.67;6.60;;;16.10;99.90;;;;;;4872367;29;20242;-74
2023/03/24 10:56:44;;;;;;;12.90;6.43;;;16.10;99.90;;;;;;4900678;29;20218;-75
2023/03/24 10:59:20;;;;;;;12.23;6.13;;;16.10;99.90;;;;;;4871029;29;20214;-76
2023/03/24 11:01:47;;;;;;;11.17;6.20;;;16.20;99.90;;;;;;4866413;29;20640;-72
2023/03/24 11:04:17;;;;;;;11.23;6.20;;;16.20;99.90;;;;;;4866129;29;20298;-75
2023/03/24 11:07:19;;;;;;;10.07;6.30;;;16.20;99.90;;;;;;4881753;29;20234;-75
2023/03/24 11:09:59;;;;;;;14.33;6.97;;;16.30;99.90;;;;;;4881764;29;20210;-76
2023/03/24 11:12:31;;;;;;;10.47;6.30;;;16.20;99.90;;;;;;4881714;29;20846;-74
2023/03/24 11:15:20;;;;;;;12.30;6.47;;;16.30;99.90;;;;;;4866452;29;20189;-74
2023/03/24 11:17:58;;;;;;;11.47;6.40;;;16.30;99.90;;;;;;4865934;29;20217;-74
2023/03/24 11:20:35;;;;;;;11.00;6.80;;;16.30;99.90;;;;;;4881698;29;20193;-74
2023/03/24 11:23:18;;;;;;;11.73;6.47;;;16.20;99.90;;;;;;4866267;29;20208;-73
2023/03/24 11:26:08;;;;;;;12.87;6.70;;;16.40;99.90;;;;;;4929187;29;20544;-74
2023/03/24 11:28:44;;;;;;;11.73;6.33;;;16.40;99.90;;;;;;4947649;28;20738;-75
2023/03/24 11:31:17;;;;;;;10.80;6.30;;;16.50;99.90;;;;;;4959002;28;20227;-75
2023/03/24 11:34:00;;;;;;;10.97;6.00;;;16.40;99.90;;;;;;4975724;28;20201;-73
2023/03/24 11:36:30;;;;;;;12.70;6.87;;;16.50;99.90;;;;;;4975985;28;20597;-74
2023/03/24 11:39:13;;;;;;;11.57;6.00;;;16.50;99.90;;;;;;4958715;28;20201;-76
2023/03/24 11:41:44;;;;;;;9.80;6.67;;;16.50;99.90;;;;;;4958151;28;20289;-74
2023/03/24 11:44:21;;;;;;;10.03;6.37;;;16.50;99.90;;;;;;4975883;28;20544;-75
2023/03/24 11:47:29;;;;;;;12.03;6.37;;;16.50;99.90;;;;;;4958365;28;20201;-73
2023/03/24 11:50:10;;;;;;;9.63;5.93;;;16.50;99.90;;;;;;4975461;28;20221;-75
2023/03/24 11:53:01;;;;;;;10.00;5.47;;;16.40;99.90;;;;;;4975585;28;20256;-80
2023/03/24 11:56:12;;;;;;;8.27;5.00;;;16.40;99.90;;;;;;4957952;28;20241;-78
2023/03/24 11:58:46;;;;;;;7.90;4.80;;;16.50;99.90;;;;;;4938604;29;20206;-77
2023/03/24 12:01:29;;;;;;;10.30;5.13;;;16.60;99.90;;;;;;4938820;29;20281;-78
2023/03/24 12:04:26;;;;;;;9.20;4.47;;;16.60;99.90;;;;;;4938734;29;20190;-72
2023/03/24 12:07:23;;;;;;;8.07;4.80;;;16.60;99.90;;;;;;4938650;29;20653;-81
2023/03/24 12:15:42;;;;;;;10.93;5.57;;;16.70;99.90;;;;;;1430478;26;20233;-78
2023/03/24 12:18:55;;;;;;;8.53;5.50;;;16.70;99.90;;;;;;4938523;29;20212;-77
2023/03/24 12:21:47;;;;;;;9.27;5.30;;;16.80;99.90;;;;;;4912145;29;20200;-76
2023/03/24 12:24:40;;;;;;;8.67;5.40;;;16.90;99.90;;;;;;4912147;29;20280;-80
2023/03/24 12:27:31;;;;;;;9.17;5.13;;;17.00;99.90;;;;;;4896422;29;20204;-77
2023/03/24 12:30:17;;;;;;;10.80;5.17;;;17.10;99.90;;;;;;4896501;29;20200;-78
2023/03/24 12:33:03;;;;;;;8.07;5.30;;;17.30;99.90;;;;;;4880827;29;20212;-76
2023/03/24 12:35:35;;;;;;;11.10;5.23;;;17.50;99.90;;;;;;4895268;29;20625;-79
2023/03/24 12:38:41;;;;;;;12.77;6.40;;;17.60;99.90;;;;;;4896126;29;20224;-78
2023/03/24 12:41:14;;;;;;;14.60;8.07;;;17.90;99.90;;;;;;4912105;29;20571;-78
2023/03/24 12:44:10;;;;;;;17.70;8.77;;;18.50;99.90;;;;;;4911700;29;20206;-77
2023/03/24 12:46:46;;;;;;;11.57;5.83;;;19.00;99.90;;;;;;4895781;29;20634;-77
2023/03/24 12:49:42;;;;;;;11.70;5.00;;;19.40;99.90;;;;;;4911420;29;20223;-77
2023/03/24 12:52:27;;;;;;;6.77;4.20;;;20.20;99.90;;;;;;4880305;29;20211;-78
2023/03/24 12:55:13;;;;;;;6.47;4.20;;;20.80;99.90;;;;;;4895732;29;20200;-77
2023/03/24 12:57:58;;;;;;;7.83;4.00;;;20.50;99.90;;;;;;4893604;29;20199;-78
2023/03/24 13:00:29;;;;;;;6.93;4.03;;;20.10;99.90;;;;;;4954172;29;20214;-78
2023/03/24 13:03:05;;;;;;;7.10;4.30;;;19.90;99.90;;;;;;4954957;28;20190;-79
2023/03/24 13:05:57;;;;;;;6.70;4.00;;;19.70;99.90;;;;;;4950518;28;20206;-77
2023/03/24 13:08:36;;;;;;;7.30;3.70;;;19.40;99.90;;;;;;4923250;29;20224;-77
2023/03/24 13:11:08;;;;;;;5.63;3.70;;;19.20;99.90;;;;;;4930647;29;20215;-77
2023/03/24 13:13:43;;;;;;;6.00;3.90;;;19.40;99.90;;;;;;4932562;29;20548;-76
2023/03/24 13:16:19;;;;;;;7.93;3.43;;;19.50;99.90;;;;;;4934165;29;20235;-78
2023/03/24 13:18:50;;;;;;;5.63;3.30;;;19.50;99.90;;;;;;4934307;29;20206;-77
2023/03/24 13:21:20;;;;;;;4.20;2.90;;;19.70;99.90;;;;;;4934219;29;20203;-78
2023/03/24 13:23:56;;;;;;;4.90;3.10;;;19.80;99.90;;;;;;4934346;29;20191;-79
2023/03/24 13:26:56;;;;;;;6.27;2.70;;;19.60;99.90;;;;;;4934209;29;20206;-78
2023/03/24 13:29:39;;;;;;;4.83;2.73;;;19.60;99.90;;;;;;4935780;29;20230;-75
2023/03/24 13:32:22;;;;;;;4.00;2.80;;;19.50;99.90;;;;;;4950011;29;20250;-73